Time;durP1;ratioP1;P1;durP2;ratioP2;P2;SDS_P1;SDS_P2;PMS_P1;PMS_P2;Temp;Humidity;BMP_temperature;BMP_pressure;BME280_temperature;BME280_humidity;BME280_pressure;Samples;Min_cycle;Max_cycle;Signal;HPM_P1;HPM_P2
2024/01/05 00:01:26;;;;;;;0.30;0.20;;;;;;;8.24;100.00;99079.78;5053958;28;20453;-52
2024/01/05 00:03:53;;;;;;;0.30;0.20;;;;;;;8.22;100.00;99087.78;5047903;28;20455;-52
2024/01/05 00:06:20;;;;;;;0.30;0.20;;;;;;;8.23;100.00;99075.41;5047188;28;20459;-52
2024/01/05 00:08:46;;;;;;;0.30;0.20;;;;;;;8.31;100.00;99073.31;5052445;28;20454;-52
2024/01/05 00:11:19;;;;;;;0.30;0.20;;;;;;;8.10;100.00;99068.84;5040877;28;20452;-52
2024/01/05 00:13:46;;;;;;;0.30;0.20;;;;;;;7.91;100.00;99068.66;5052092;28;20494;-52
2024/01/05 00:16:20;;;;;;;0.30;0.20;;;;;;;7.93;100.00;99057.09;5040289;28;20509;-52
2024/01/05 00:18:47;;;;;;;0.30;0.20;;;;;;;8.10;100.00;99055.63;5053724;28;20470;-52
2024/01/05 00:21:27;;;;;;;0.30;0.20;;;;;;;7.92;100.00;99028.91;5051572;28;20446;-53
2024/01/05 00:23:55;;;;;;;0.30;0.20;;;;;;;7.99;100.00;99035.72;5044421;28;20530;-54
2024/01/05 00:26:21;;;;;;;2.20;2.10;;;;;;;8.01;100.00;99039.16;5053683;28;20451;-53
2024/01/05 00:28:50;;;;;;;0.30;0.20;;;;;;;7.76;100.00;99038.38;5053713;28;20535;-52
2024/01/05 00:31:17;;;;;;;0.30;0.20;;;;;;;7.82;100.00;99026.72;5040027;28;20831;-52
2024/01/05 00:33:44;;;;;;;0.30;0.20;;;;;;;7.92;100.00;99028.06;5053322;28;20858;-52
2024/01/05 00:36:12;;;;;;;0.30;0.20;;;;;;;7.79;100.00;99019.72;5052677;28;20467;-52
2024/01/05 00:38:41;;;;;;;0.30;0.20;;;;;;;7.81;100.00;99009.97;5053477;28;20513;-53
2024/01/05 00:41:07;;;;;;;0.30;0.20;;;;;;;7.70;100.00;99007.72;5047360;28;20535;-53
2024/01/05 00:43:34;;;;;;;0.30;0.20;;;;;;;7.79;100.00;99008.28;5050111;28;20490;-52
2024/01/05 00:46:00;;;;;;;0.30;0.20;;;;;;;7.92;100.00;99009.53;5039850;28;20451;-52
2024/01/05 00:48:27;;;;;;;0.30;0.20;;;;;;;7.96;100.00;99012.03;5053096;28;20542;-52
2024/01/05 00:50:53;;;;;;;0.30;0.20;;;;;;;7.95;100.00;99026.19;5046950;28;20527;-52
2024/01/05 00:53:20;;;;;;;0.30;0.20;;;;;;;7.90;100.00;99025.47;5046055;28;20481;-54
2024/01/05 00:55:46;;;;;;;0.30;0.20;;;;;;;7.82;100.00;99030.22;5040020;28;21030;-52
2024/01/05 00:58:13;;;;;;;0.30;0.20;;;;;;;7.90;100.00;99021.97;5039441;28;20452;-53
2024/01/05 01:00:39;;;;;;;0.30;0.20;;;;;;;8.12;100.00;99022.00;5052933;28;20508;-53
2024/01/05 01:03:06;;;;;;;0.30;0.20;;;;;;;8.08;100.00;99029.19;5052461;28;20449;-53
2024/01/05 01:05:32;;;;;;;0.30;0.20;;;;;;;7.78;100.00;99023.28;5040005;28;20458;-52
2024/01/05 01:08:00;;;;;;;0.30;0.20;;;;;;;7.56;100.00;99028.53;5052709;28;20446;-53
2024/01/05 01:10:26;;;;;;;0.30;0.20;;;;;;;7.62;100.00;99027.44;5045910;28;20494;-52
2024/01/05 01:12:53;;;;;;;0.30;0.20;;;;;;;7.48;100.00;99032.38;5046461;28;20475;-52
2024/01/05 01:15:20;;;;;;;0.30;0.20;;;;;;;7.47;100.00;99022.72;5045089;28;20900;-53
2024/01/05 01:17:46;;;;;;;0.30;0.20;;;;;;;7.39;100.00;99015.03;5046717;28;20450;-52
2024/01/05 01:20:13;;;;;;;0.30;0.20;;;;;;;7.22;100.00;99013.00;5052880;28;20475;-53
2024/01/05 01:22:39;;;;;;;0.30;0.20;;;;;;;7.31;100.00;99017.13;5038970;28;20476;-53
2024/01/05 01:25:06;;;;;;;0.30;0.20;;;;;;;7.29;100.00;99009.25;5052589;28;20489;-53
2024/01/05 01:27:34;;;;;;;0.30;0.20;;;;;;;7.19;100.00;99007.84;5051329;28;20923;-51
2024/01/05 01:30:01;;;;;;;0.30;0.20;;;;;;;7.18;100.00;99003.47;5040694;28;20447;-52
2024/01/05 01:32:28;;;;;;;0.30;0.20;;;;;;;7.17;100.00;99003.53;5052655;28;20466;-53
2024/01/05 01:34:55;;;;;;;0.30;0.20;;;;;;;7.14;100.00;98999.22;5052357;28;20479;-52
2024/01/05 01:37:21;;;;;;;0.30;0.20;;;;;;;7.08;100.00;98997.66;5052298;28;20486;-53
2024/01/05 01:39:47;;;;;;;0.30;0.20;;;;;;;7.18;100.00;98992.91;5052254;28;20508;-52
2024/01/05 01:42:14;;;;;;;0.30;0.20;;;;;;;7.07;100.00;98992.41;5042624;28;20916;-52
2024/01/05 01:44:40;;;;;;;0.30;0.20;;;;;;;7.02;100.00;98984.66;5043250;28;20987;-52
2024/01/05 01:47:07;;;;;;;0.30;0.20;;;;;;;6.93;100.00;98978.84;5047652;28;20529;-52
2024/01/05 01:49:34;;;;;;;0.30;0.20;;;;;;;6.95;100.00;98966.44;5052039;28;20909;-53
2024/01/05 01:52:01;;;;;;;0.30;0.20;;;;;;;7.30;100.00;98973.97;5038793;28;20489;-53
2024/01/05 01:54:32;;;;;;;0.30;0.20;;;;;;;7.32;100.00;98977.41;5051829;28;20497;-53
2024/01/05 01:57:02;;;;;;;0.30;0.20;;;;;;;7.33;100.00;98963.28;5048812;28;20498;-52
2024/01/05 01:59:29;;;;;;;0.30;0.20;;;;;;;7.34;100.00;98957.06;5042147;28;20450;-53
2024/01/05 02:01:56;;;;;;;0.80;0.77;;;;;;;7.31;100.00;98964.25;5051826;28;20566;-52
2024/01/05 02:04:25;;;;;;;0.30;0.17;;;;;;;7.51;100.00;98961.72;5041568;28;20452;-52
2024/01/05 02:06:52;;;;;;;0.30;0.20;;;;;;;7.46;100.00;98950.47;5049330;28;20451;-52
2024/01/05 02:09:19;;;;;;;0.30;0.10;;;;;;;7.51;100.00;98940.56;5051619;28;20451;-53
2024/01/05 02:11:45;;;;;;;0.30;0.20;;;;;;;7.55;100.00;98939.56;5038454;28;20481;-54
2024/01/05 02:14:12;;;;;;;0.30;0.20;;;;;;;7.46;100.00;98931.09;5051732;28;20603;-53
2024/01/05 02:16:40;;;;;;;0.30;0.20;;;;;;;7.52;100.00;98930.84;5038314;28;20450;-52
2024/01/05 02:19:07;;;;;;;0.30;0.17;;;;;;;7.42;100.00;98931.22;5051748;28;20544;-52
2024/01/05 02:21:39;;;;;;;0.30;0.20;;;;;;;7.38;100.00;98931.38;5046526;28;20500;-52
2024/01/05 02:24:06;;;;;;;0.30;0.20;;;;;;;7.40;100.00;98925.16;5044022;28;20450;-52
2024/01/05 02:26:32;;;;;;;0.30;0.20;;;;;;;7.36;100.00;98918.22;5050052;28;20866;-52
2024/01/05 02:29:02;;;;;;;0.30;0.17;;;;;;;7.32;100.00;98921.91;5039280;28;20491;-52
2024/01/05 02:31:28;;;;;;;0.30;0.20;;;;;;;7.22;100.00;98922.31;5051155;28;20469;-52
2024/01/05 02:33:55;;;;;;;0.30;0.20;;;;;;;7.20;100.00;98914.44;5051371;28;20893;-52
2024/01/05 02:36:22;;;;;;;0.30;0.20;;;;;;;7.20;100.00;98906.50;5051402;28;20454;-53
2024/01/05 02:38:48;;;;;;;0.30;0.20;;;;;;;7.32;100.00;98915.75;5051195;28;20486;-52
2024/01/05 02:41:15;;;;;;;0.30;0.20;;;;;;;7.33;100.00;98913.06;5044416;28;20458;-52
2024/01/05 02:43:41;;;;;;;0.30;0.20;;;;;;;7.37;100.00;98908.50;5048470;28;20451;-52
2024/01/05 02:46:09;;;;;;;0.30;0.20;;;;;;;7.40;100.00;98901.34;5038832;28;20457;-52
2024/01/05 02:48:35;;;;;;;0.30;0.20;;;;;;;7.23;100.00;98906.38;5051341;28;20501;-52
2024/01/05 02:51:02;;;;;;;0.30;0.20;;;;;;;7.14;100.00;98901.47;5043744;28;20463;-52
2024/01/05 02:53:28;;;;;;;0.30;0.20;;;;;;;7.08;100.00;98901.69;5046277;28;20478;-52
2024/01/05 02:55:55;;;;;;;0.30;0.20;;;;;;;7.04;100.00;98898.28;5051588;28;20494;-52
2024/01/05 02:58:22;;;;;;;0.30;0.20;;;;;;;6.93;100.00;98900.47;5037875;28;20458;-51
2024/01/05 03:00:48;;;;;;;0.30;0.20;;;;;;;6.91;100.00;98898.78;5054843;28;20482;-52
2024/01/05 03:03:15;;;;;;;0.30;0.20;;;;;;;7.01;100.00;98900.19;5053555;28;20474;-52
2024/01/05 03:05:41;;;;;;;0.30;0.20;;;;;;;7.03;100.00;98893.94;5043546;28;20504;-52
2024/01/05 03:08:09;;;;;;;0.30;0.20;;;;;;;6.98;100.00;98893.22;5054775;28;20504;-51
2024/01/05 03:10:35;;;;;;;0.30;0.10;;;;;;;6.97;100.00;98888.00;5046658;28;20550;-52
2024/01/05 03:13:02;;;;;;;0.30;0.20;;;;;;;7.02;100.00;98889.56;5050284;28;20562;-52
2024/01/05 03:15:29;;;;;;;0.30;0.20;;;;;;;7.07;100.00;98889.38;5046138;28;20491;-52
2024/01/05 03:17:55;;;;;;;0.30;0.20;;;;;;;7.08;100.00;98881.41;5050692;28;20447;-52
2024/01/05 03:20:22;;;;;;;0.30;0.20;;;;;;;7.12;100.00;98875.06;5054784;28;20457;-52
2024/01/05 03:22:48;;;;;;;0.30;0.20;;;;;;;7.20;100.00;98880.09;5041009;28;20463;-51
2024/01/05 03:25:14;;;;;;;0.30;0.20;;;;;;;7.15;100.00;98868.84;5053392;28;20959;-52
2024/01/05 03:27:41;;;;;;;0.30;0.20;;;;;;;7.20;100.00;98869.50;5052416;28;20935;-52
2024/01/05 03:30:07;;;;;;;0.30;0.20;;;;;;;7.22;100.00;98867.66;5044013;28;20927;-52
2024/01/05 03:32:34;;;;;;;0.30;0.20;;;;;;;7.26;100.00;98860.47;5054600;28;21160;-52
2024/01/05 03:35:01;;;;;;;0.30;0.20;;;;;;;7.20;100.00;98864.22;5054270;28;20578;-51
2024/01/05 03:37:27;;;;;;;0.30;0.10;;;;;;;7.15;100.00;98858.28;5054837;28;20446;-52
2024/01/05 03:39:53;;;;;;;0.30;0.20;;;;;;;7.20;100.00;98855.44;5054450;28;20442;-52
2024/01/05 03:42:20;;;;;;;0.30;0.20;;;;;;;7.08;100.00;98854.13;5045444;28;20562;-51
2024/01/05 03:44:47;;;;;;;0.30;0.10;;;;;;;6.97;100.00;98848.38;5044968;28;20444;-51
2024/01/05 03:47:13;;;;;;;0.30;0.20;;;;;;;6.83;100.00;98840.97;5050531;28;20483;-52
2024/01/05 03:49:39;;;;;;;0.30;0.20;;;;;;;6.95;100.00;98835.22;5054316;28;20450;-52
2024/01/05 03:52:06;;;;;;;0.30;0.20;;;;;;;6.87;100.00;98837.31;5040814;28;20505;-51
2024/01/05 03:54:33;;;;;;;0.30;0.20;;;;;;;7.27;100.00;98836.66;5054057;28;20518;-52
2024/01/05 03:56:59;;;;;;;0.30;0.20;;;;;;;7.13;100.00;98846.91;5051041;28;20521;-52
2024/01/05 03:59:25;;;;;;;0.30;0.20;;;;;;;7.16;100.00;98840.63;5043966;28;20951;-52
2024/01/05 04:01:53;;;;;;;0.30;0.20;;;;;;;7.12;100.00;98827.50;5053893;28;20466;-52
2024/01/05 04:04:19;;;;;;;0.30;0.17;;;;;;;7.20;100.00;98829.00;5043811;28;20454;-53
2024/01/05 04:06:46;;;;;;;0.30;0.20;;;;;;;7.14;100.00;98830.13;5051299;28;20475;-52
2024/01/05 04:09:13;;;;;;;0.30;0.20;;;;;;;7.13;100.00;98823.97;5053932;28;20955;-52
2024/01/05 04:11:40;;;;;;;0.30;0.20;;;;;;;7.13;100.00;98818.69;5039348;28;20517;-52
2024/01/05 04:14:07;;;;;;;0.30;0.10;;;;;;;7.17;100.00;98822.06;5053740;28;20932;-52
2024/01/05 04:16:34;;;;;;;0.30;0.20;;;;;;;7.16;100.00;98811.56;5040301;28;20443;-52
2024/01/05 04:19:01;;;;;;;0.30;0.20;;;;;;;7.09;100.00;98816.22;5053831;28;20454;-52
2024/01/05 04:21:28;;;;;;;0.30;0.20;;;;;;;7.03;100.00;98817.31;5049508;28;20530;-52
2024/01/05 04:23:57;;;;;;;0.30;0.20;;;;;;;7.18;100.00;98810.59;5044874;28;20541;-52
2024/01/05 04:26:23;;;;;;;0.30;0.20;;;;;;;7.23;100.00;98811.25;5053700;28;20450;-52
2024/01/05 04:28:50;;;;;;;0.30;0.20;;;;;;;7.32;100.00;98813.53;5042355;28;20534;-52
2024/01/05 04:31:16;;;;;;;0.30;0.20;;;;;;;7.59;100.00;98806.31;5051423;28;20454;-51
2024/01/05 04:33:43;;;;;;;0.30;0.20;;;;;;;7.65;100.00;98810.47;5053396;28;20926;-52
2024/01/05 04:36:10;;;;;;;0.30;0.20;;;;;;;7.41;100.00;98815.84;5053366;28;20490;-52
2024/01/05 04:38:37;;;;;;;0.30;0.20;;;;;;;7.31;100.00;98811.84;5053288;28;20999;-51
2024/01/05 04:41:04;;;;;;;0.30;0.20;;;;;;;7.19;100.00;98796.44;5047571;28;20956;-52
2024/01/05 04:43:30;;;;;;;0.30;0.20;;;;;;;7.32;100.00;98795.03;5049543;28;20477;-52
2024/01/05 04:45:56;;;;;;;0.30;0.20;;;;;;;7.14;100.00;98787.84;5039732;28;20443;-51
2024/01/05 04:48:23;;;;;;;0.30;0.20;;;;;;;7.27;100.00;98793.53;5053465;28;20549;-52
2024/01/05 04:50:51;;;;;;;0.30;0.20;;;;;;;7.41;100.00;98799.97;5047046;28;20961;-52
2024/01/05 04:53:17;;;;;;;0.30;0.20;;;;;;;7.25;100.00;98793.56;5045907;28;20474;-51
2024/01/05 04:55:43;;;;;;;0.30;0.20;;;;;;;7.28;100.00;98785.53;5052994;28;20657;-52
2024/01/05 04:58:10;;;;;;;0.30;0.20;;;;;;;7.33;100.00;98788.84;5040208;28;20534;-52
2024/01/05 05:00:36;;;;;;;0.30;0.20;;;;;;;7.21;100.00;98794.59;5039710;28;20900;-52
2024/01/05 05:03:03;;;;;;;0.30;0.20;;;;;;;7.17;100.00;98787.72;5039604;28;20476;-53
2024/01/05 05:05:30;;;;;;;0.30;0.20;;;;;;;7.04;100.00;98791.75;5053175;28;20501;-52
2024/01/05 05:07:57;;;;;;;0.30;0.20;;;;;;;7.00;100.00;98776.97;5051448;28;20446;-52
2024/01/05 05:10:24;;;;;;;0.30;0.20;;;;;;;7.07;100.00;98779.28;5038665;28;20838;-52
2024/01/05 05:12:50;;;;;;;0.30;0.20;;;;;;;7.03;100.00;98774.19;5052514;28;20475;-52
2024/01/05 05:15:16;;;;;;;0.30;0.20;;;;;;;6.91;100.00;98770.25;5045710;28;20582;-52
2024/01/05 05:17:43;;;;;;;0.30;0.20;;;;;;;7.00;100.00;98769.03;5046765;28;20973;-52
2024/01/05 05:20:10;;;;;;;0.30;0.20;;;;;;;7.10;100.00;98773.88;5052820;28;20450;-52
2024/01/05 05:22:36;;;;;;;0.30;0.20;;;;;;;7.19;100.00;98780.59;5038516;28;21014;-52
2024/01/05 05:25:03;;;;;;;0.30;0.20;;;;;;;7.31;100.00;98795.97;5052431;28;20451;-52
2024/01/05 05:27:33;;;;;;;0.30;0.17;;;;;;;7.34;100.00;98789.69;5050826;28;20482;-52
2024/01/05 05:30:04;;;;;;;0.30;0.20;;;;;;;7.38;100.00;98783.34;5040934;28;20455;-52
2024/01/05 05:32:34;;;;;;;0.30;0.20;;;;;;;7.28;100.00;98782.03;5052403;28;20469;-52
2024/01/05 05:35:01;;;;;;;0.30;0.20;;;;;;;7.08;100.00;98780.16;5052129;28;20486;-52
2024/01/05 05:37:27;;;;;;;0.30;0.20;;;;;;;7.19;100.00;98782.38;5052323;28;20458;-52
2024/01/05 05:39:54;;;;;;;0.30;0.20;;;;;;;7.23;100.00;98787.47;5052016;28;20833;-52
2024/01/05 05:42:20;;;;;;;0.30;0.20;;;;;;;7.16;100.00;98780.72;5042142;28;20562;-52
2024/01/05 05:44:47;;;;;;;0.30;0.10;;;;;;;7.11;100.00;98782.66;5042844;28;20484;-52
2024/01/05 05:47:13;;;;;;;0.30;0.20;;;;;;;7.13;100.00;98789.63;5048735;28;20553;-52
2024/01/05 05:49:40;;;;;;;0.30;0.20;;;;;;;7.10;100.00;98802.06;5052055;28;20453;-52
2024/01/05 05:52:07;;;;;;;0.30;0.20;;;;;;;7.07;100.00;98810.13;5038275;28;21006;-52
2024/01/05 05:54:33;;;;;;;0.30;0.20;;;;;;;7.10;100.00;98807.38;5051711;28;20450;-52
2024/01/05 05:57:00;;;;;;;0.30;0.10;;;;;;;7.39;100.00;98812.38;5049232;28;20514;-52
2024/01/05 05:59:27;;;;;;;0.30;0.20;;;;;;;7.37;100.00;98808.06;5041455;28;20469;-51
2024/01/05 06:01:54;;;;;;;0.60;0.60;;;;;;;7.29;100.00;98807.53;5051639;28;20502;-52
2024/01/05 06:04:20;;;;;;;0.30;0.20;;;;;;;7.05;100.00;98794.34;5042100;28;20447;-51
2024/01/05 06:06:47;;;;;;;0.30;0.20;;;;;;;6.94;100.00;98808.88;5048797;28;20531;-51
2024/01/05 06:09:14;;;;;;;0.30;0.20;;;;;;;7.00;100.00;98800.72;5051554;28;20451;-52
2024/01/05 06:11:41;;;;;;;0.30;0.20;;;;;;;6.95;100.00;98808.81;5038065;28;20996;-52
2024/01/05 06:14:08;;;;;;;0.30;0.20;;;;;;;7.04;100.00;98810.25;5051690;28;21001;-52
2024/01/05 06:16:34;;;;;;;0.30;0.20;;;;;;;7.02;100.00;98815.59;5038088;28;20548;-52
2024/01/05 06:19:01;;;;;;;0.30;0.20;;;;;;;7.02;100.00;98804.16;5051661;28;20949;-52
2024/01/05 06:21:28;;;;;;;0.30;0.20;;;;;;;7.03;100.00;98804.09;5048092;28;20452;-53
2024/01/05 06:23:55;;;;;;;0.30;0.20;;;;;;;7.07;100.00;98797.78;5041928;28;20573;-52
2024/01/05 06:26:21;;;;;;;0.30;0.20;;;;;;;7.20;100.00;98806.09;5051497;28;20972;-52
2024/01/05 06:28:48;;;;;;;0.30;0.20;;;;;;;7.21;100.00;98809.59;5041287;28;20452;-51
2024/01/05 06:31:14;;;;;;;0.30;0.20;;;;;;;7.15;100.00;98809.84;5036078;28;20453;-52
2024/01/05 06:33:42;;;;;;;0.30;0.20;;;;;;;7.10;100.00;98812.66;5050823;28;20447;-52
2024/01/05 06:36:08;;;;;;;0.30;0.20;;;;;;;7.09;100.00;98814.44;5051232;28;20510;-51
2024/01/05 06:38:35;;;;;;;0.30;0.20;;;;;;;7.14;100.00;98814.28;5051248;28;20454;-52
2024/01/05 06:41:01;;;;;;;0.30;0.20;;;;;;;7.12;100.00;98813.44;5046318;28;20452;-51
2024/01/05 06:43:28;;;;;;;0.30;0.20;;;;;;;7.61;100.00;98808.88;5047376;28;20462;-52
2024/01/05 06:45:54;;;;;;;0.30;0.20;;;;;;;7.58;100.00;98814.31;5037719;28;20904;-52
2024/01/05 06:48:20;;;;;;;0.30;0.20;;;;;;;7.38;100.00;98817.72;5051447;28;20451;-52
2024/01/05 06:50:47;;;;;;;0.30;0.20;;;;;;;7.31;100.00;98808.31;5045816;28;20514;-52
2024/01/05 06:53:14;;;;;;;0.30;0.20;;;;;;;7.24;100.00;98810.34;5043527;28;20862;-52
2024/01/05 06:55:40;;;;;;;0.30;0.20;;;;;;;7.29;100.00;98810.16;5051121;28;20577;-52
2024/01/05 06:58:08;;;;;;;0.30;0.20;;;;;;;7.25;100.00;98808.56;5038862;28;20460;-52
2024/01/05 07:00:37;;;;;;;0.30;0.20;;;;;;;7.33;100.00;98807.34;5050786;28;20542;-53
2024/01/05 07:03:04;;;;;;;0.30;0.20;;;;;;;7.39;100.00;98809.72;5051249;28;20474;-52
2024/01/05 07:05:31;;;;;;;0.30;0.20;;;;;;;7.50;100.00;98806.66;5037474;28;20500;-52
2024/01/05 07:07:58;;;;;;;0.30;0.20;;;;;;;7.46;100.00;98805.06;5051328;28;20507;-52
2024/01/05 07:10:25;;;;;;;0.30;0.20;;;;;;;7.61;100.00;98798.31;5044568;28;20487;-52
2024/01/05 07:12:52;;;;;;;0.30;0.20;;;;;;;7.77;100.00;98799.41;5044482;28;20472;-51
2024/01/05 07:15:18;;;;;;;0.30;0.20;;;;;;;7.83;100.00;98798.31;5037844;28;21021;-51
2024/01/05 07:17:45;;;;;;;0.30;0.20;;;;;;;7.78;100.00;98800.25;5037601;28;20456;-52
2024/01/05 07:20:12;;;;;;;0.30;0.20;;;;;;;7.79;100.00;98805.47;5050876;28;20446;-53
2024/01/05 07:22:38;;;;;;;0.30;0.20;;;;;;;7.64;100.00;98792.88;5050506;28;20904;-52
2024/01/05 07:25:09;;;;;;;0.30;0.20;;;;;;;7.76;100.00;98797.69;5038359;28;20482;-52
2024/01/05 07:27:36;;;;;;;0.30;0.20;;;;;;;7.77;100.00;98794.09;5051008;28;20500;-52
2024/01/05 07:30:04;;;;;;;0.30;0.20;;;;;;;7.70;100.00;98800.59;5042759;28;20461;-52
2024/01/05 07:32:31;;;;;;;0.30;0.20;;;;;;;7.89;100.00;98798.03;5045808;28;20482;-52
2024/01/05 07:34:58;;;;;;;0.30;0.20;;;;;;;7.78;100.00;98802.91;5050614;28;20446;-52
2024/01/05 07:37:25;;;;;;;0.30;0.20;;;;;;;7.83;100.00;98800.94;5050689;28;20917;-52
2024/01/05 07:39:51;;;;;;;0.30;0.20;;;;;;;7.97;100.00;98801.22;5050930;28;20794;-52
2024/01/05 07:42:18;;;;;;;0.30;0.20;;;;;;;8.05;100.00;98808.81;5041363;28;20503;-52
2024/01/05 07:44:44;;;;;;;0.30;0.20;;;;;;;8.28;100.00;98814.00;5042182;28;20981;-52
2024/01/05 07:47:11;;;;;;;0.30;0.20;;;;;;;8.39;100.00;98813.59;5050001;28;21033;-52
2024/01/05 07:49:37;;;;;;;0.30;0.20;;;;;;;8.50;100.00;98816.63;5054534;28;20447;-52
2024/01/05 07:52:04;;;;;;;0.30;0.20;;;;;;;8.64;99.90;98816.88;5040662;28;20550;-53
2024/01/05 07:54:30;;;;;;;0.30;0.20;;;;;;;8.69;99.57;98814.00;5054454;28;20474;-52
2024/01/05 07:56:57;;;;;;;0.30;0.10;;;;;;;8.75;99.53;98804.00;5051382;28;21003;-52
2024/01/05 07:59:24;;;;;;;0.30;0.20;;;;;;;8.85;99.65;98810.59;5043877;28;20824;-52
2024/01/05 08:01:51;;;;;;;0.30;0.20;;;;;;;8.86;98.72;98796.41;5053654;28;20473;-53
2024/01/05 08:04:18;;;;;;;0.30;0.20;;;;;;;8.98;98.77;98802.94;5044662;28;20538;-53
2024/01/05 08:06:47;;;;;;;0.30;0.20;;;;;;;9.06;98.11;98794.66;5050467;28;20447;-51
2024/01/05 08:09:14;;;;;;;0.30;0.20;;;;;;;9.07;97.76;98794.59;5053818;28;20549;-52
2024/01/05 08:11:40;;;;;;;0.30;0.20;;;;;;;9.04;97.83;98792.06;5040265;28;20970;-52
2024/01/05 08:14:09;;;;;;;0.30;0.20;;;;;;;9.13;97.92;98780.16;5053833;28;20496;-52
2024/01/05 08:16:36;;;;;;;0.30;0.20;;;;;;;9.15;97.02;98778.31;5040427;28;20497;-52
2024/01/05 08:19:03;;;;;;;0.30;0.20;;;;;;;9.12;97.27;98779.31;5052728;28;20640;-52
2024/01/05 08:21:30;;;;;;;0.30;0.20;;;;;;;9.00;97.73;98771.06;5048918;28;20472;-52
2024/01/05 08:23:56;;;;;;;0.30;0.20;;;;;;;9.06;97.99;98768.16;5044049;28;20455;-51
2024/01/05 08:26:23;;;;;;;0.30;0.20;;;;;;;8.94;97.78;98769.59;5053539;28;20447;-51
2024/01/05 08:28:49;;;;;;;0.30;0.20;;;;;;;9.00;97.46;98774.59;5041920;28;20462;-51
2024/01/05 08:31:15;;;;;;;0.30;0.20;;;;;;;9.04;97.00;98773.50;5052367;28;20451;-50
2024/01/05 08:33:42;;;;;;;0.30;0.20;;;;;;;9.11;96.78;98774.94;5053603;28;20943;-51
2024/01/05 08:36:09;;;;;;;0.30;0.20;;;;;;;9.06;97.42;98773.47;5053157;28;20483;-51
2024/01/05 08:38:35;;;;;;;0.30;0.20;;;;;;;9.09;96.69;98768.00;5054754;28;20447;-51
2024/01/05 08:41:02;;;;;;;0.30;0.20;;;;;;;9.13;96.68;98770.44;5047739;28;20483;-51
2024/01/05 08:43:28;;;;;;;0.30;0.20;;;;;;;9.20;96.97;98763.91;5049067;28;20845;-50
2024/01/05 08:45:55;;;;;;;0.30;0.20;;;;;;;9.20;96.37;98763.91;5040163;28;20474;-51
2024/01/05 08:48:21;;;;;;;0.30;0.20;;;;;;;9.30;96.08;98758.16;5053362;28;21055;-51
2024/01/05 08:50:48;;;;;;;0.30;0.20;;;;;;;9.19;96.55;98762.19;5047067;28;20444;-50
2024/01/05 08:53:14;;;;;;;0.30;0.20;;;;;;;9.15;97.20;98763.25;5033694;28;20510;-52
2024/01/05 08:55:41;;;;;;;0.30;0.20;;;;;;;9.22;97.01;98768.28;5052374;28;20490;-51
2024/01/05 08:58:10;;;;;;;0.30;0.20;;;;;;;9.35;96.76;98764.13;5052135;28;20566;-51
2024/01/05 09:00:36;;;;;;;0.30;0.20;;;;;;;9.39;96.63;98753.28;5040347;28;20454;-51
2024/01/05 09:03:03;;;;;;;0.30;0.20;;;;;;;9.64;96.32;98760.91;5039614;28;20558;-51
2024/01/05 09:05:30;;;;;;;0.30;0.20;;;;;;;9.80;95.57;98755.69;5053023;28;20500;-52
2024/01/05 09:07:57;;;;;;;0.30;0.20;;;;;;;9.65;95.37;98761.75;5052543;28;20487;-51
2024/01/05 09:10:23;;;;;;;0.30;0.20;;;;;;;9.59;95.47;98762.03;5040189;28;20485;-51
2024/01/05 09:12:50;;;;;;;0.30;0.20;;;;;;;9.59;95.37;98759.38;5052836;28;20478;-52
2024/01/05 09:15:17;;;;;;;0.30;0.20;;;;;;;9.63;95.45;98772.44;5045373;28;20971;-51
2024/01/05 09:17:44;;;;;;;0.30;0.20;;;;;;;9.71;95.32;98774.69;5047001;28;20533;-52
2024/01/05 09:20:12;;;;;;;0.30;0.20;;;;;;;9.66;95.42;98772.28;5052536;28;20951;-51
2024/01/05 09:22:39;;;;;;;0.30;0.20;;;;;;;9.79;95.20;98770.75;5039025;28;20835;-51
2024/01/05 09:25:06;;;;;;;0.30;0.20;;;;;;;9.61;96.14;98792.88;5052395;28;20446;-51
2024/01/05 09:27:33;;;;;;;0.30;0.20;;;;;;;9.78;96.08;98797.38;5050874;28;20449;-51
2024/01/05 09:29:59;;;;;;;0.30;0.20;;;;;;;9.84;96.12;98796.19;5041050;28;20457;-51
2024/01/05 09:32:26;;;;;;;0.40;0.40;;;;;;;9.99;95.23;98792.75;5052411;28;20554;-51
2024/01/05 09:34:52;;;;;;;0.30;0.20;;;;;;;9.90;94.98;98791.44;5052454;28;20450;-51
2024/01/05 09:37:19;;;;;;;0.30;0.20;;;;;;;9.97;95.22;98789.34;5052258;28;20550;-51
2024/01/05 09:39:45;;;;;;;0.30;0.20;;;;;;;9.83;95.33;98794.47;5052003;28;20432;-51
2024/01/05 09:42:12;;;;;;;0.30;0.20;;;;;;;9.93;94.88;98796.59;5042975;28;20478;-51
2024/01/05 09:44:38;;;;;;;0.30;0.20;;;;;;;9.98;94.73;98802.53;5043970;28;20458;-51
2024/01/05 09:47:07;;;;;;;0.30;0.20;;;;;;;10.01;94.85;98802.41;5047051;28;20547;-52
2024/01/05 09:49:37;;;;;;;0.30;0.20;;;;;;;9.97;94.62;98799.94;5052198;28;20486;-51
2024/01/05 09:52:04;;;;;;;0.30;0.20;;;;;;;10.06;94.23;98800.34;5038510;28;20490;-51
2024/01/05 09:54:30;;;;;;;0.30;0.20;;;;;;;10.14;93.81;98807.06;5051732;28;20461;-51
2024/01/05 09:56:58;;;;;;;0.30;0.20;;;;;;;10.15;94.04;98809.66;5049758;28;20517;-51
2024/01/05 09:59:25;;;;;;;0.30;0.20;;;;;;;10.12;93.47;98809.78;5041249;28;20455;-51
2024/01/05 10:01:53;;;;;;;0.30;0.20;;;;;;;10.20;93.75;98796.13;5052002;28;20470;-51
2024/01/05 10:04:20;;;;;;;0.30;0.20;;;;;;;10.19;93.40;98802.38;5042755;28;20550;-51
2024/01/05 10:07:03;;;;;;;0.30;0.20;;;;;;;10.12;92.98;98803.63;5048355;28;20447;-51
2024/01/05 10:09:31;;;;;;;0.30;0.20;;;;;;;10.28;92.61;98809.91;5051039;28;20533;-51
2024/01/05 10:11:57;;;;;;;0.30;0.20;;;;;;;10.28;92.86;98807.25;5038416;28;20470;-51
2024/01/05 10:14:28;;;;;;;0.30;0.20;;;;;;;10.31;92.96;98810.63;5051947;28;20457;-51
2024/01/05 10:17:08;;;;;;;0.30;0.20;;;;;;;10.36;92.07;98805.94;5038143;28;20577;-51
2024/01/05 10:19:35;;;;;;;0.30;0.20;;;;;;;10.37;92.65;98806.78;5051676;28;21002;-51
2024/01/05 10:22:12;;;;;;;0.30;0.20;;;;;;;10.39;92.10;98808.41;5051637;28;20470;-51
2024/01/05 10:24:40;;;;;;;0.30;0.20;;;;;;;10.44;92.61;98807.34;5038079;28;20993;-51
2024/01/05 10:27:09;;;;;;;0.30;0.20;;;;;;;10.38;91.94;98809.34;5052108;28;20446;-51
2024/01/05 10:29:38;;;;;;;0.30;0.20;;;;;;;10.49;91.83;98802.63;5047302;28;20514;-51
2024/01/05 10:32:18;;;;;;;0.30;0.20;;;;;;;10.38;91.96;98806.69;5043189;28;20896;-51
2024/01/05 10:34:47;;;;;;;0.30;0.20;;;;;;;10.50;91.47;98805.22;5051419;28;20451;-51
2024/01/05 10:37:19;;;;;;;0.30;0.20;;;;;;;10.70;90.84;98804.19;5045800;28;20486;-51
2024/01/05 10:39:46;;;;;;;0.30;0.20;;;;;;;10.60;90.31;98805.59;5050150;28;20935;-52
2024/01/05 10:42:19;;;;;;;0.30;0.20;;;;;;;10.32;90.91;98804.38;5041468;28;20833;-51
2024/01/05 10:44:48;;;;;;;0.30;0.20;;;;;;;10.56;91.09;98807.56;5042018;28;20483;-52
2024/01/05 10:47:15;;;;;;;0.30;0.20;;;;;;;10.46;90.72;98808.97;5048396;28;20470;-51
2024/01/05 10:49:48;;;;;;;0.30;0.20;;;;;;;10.34;90.96;98798.97;5050294;28;20542;-52
2024/01/05 10:52:17;;;;;;;0.30;0.20;;;;;;;10.39;90.72;98796.94;5037679;28;20475;-52
2024/01/05 10:54:48;;;;;;;0.30;0.20;;;;;;;10.47;90.75;98809.84;5051159;28;20533;-51
2024/01/05 10:57:18;;;;;;;0.30;0.20;;;;;;;10.53;90.72;98805.03;5045838;28;20495;-51
2024/01/05 10:59:45;;;;;;;0.30;0.20;;;;;;;10.56;90.29;98807.56;5044045;28;20863;-53
2024/01/05 11:02:22;;;;;;;0.30;0.20;;;;;;;10.56;90.07;98807.56;5051180;28;20475;-52
2024/01/05 11:05:09;;;;;;;0.30;0.20;;;;;;;10.46;90.65;98806.31;5038097;28;20526;-52
2024/01/05 11:07:38;;;;;;;0.30;0.20;;;;;;;10.58;90.76;98804.81;5051366;28;20530;-52
2024/01/05 11:10:32;;;;;;;0.30;0.20;;;;;;;10.76;90.42;98795.88;5046063;28;20975;-51
2024/01/05 11:13:27;;;;;;;0.30;0.20;;;;;;;10.70;89.78;98798.88;5046505;28;20471;-51
2024/01/05 11:15:59;;;;;;;0.30;0.20;;;;;;;10.80;89.91;98792.09;5038587;28;21040;-51
2024/01/05 11:18:46;;;;;;;0.30;0.20;;;;;;;10.98;88.87;98788.47;5036661;28;20454;-52
2024/01/05 11:21:33;;;;;;;0.30;0.20;;;;;;;11.08;89.20;98790.59;5053620;28;20454;-52
2024/01/05 11:24:00;;;;;;;0.30;0.20;;;;;;;11.30;88.14;98791.13;5042130;28;20448;-52
2024/01/05 11:26:35;;;;;;;0.30;0.20;;;;;;;11.23;87.00;98789.75;5054228;28;20443;-53
2024/01/05 11:29:03;;;;;;;0.30;0.20;;;;;;;11.52;86.41;98793.47;5053845;28;20497;-52
2024/01/05 11:31:47;;;;;;;0.30;0.20;;;;;;;11.67;84.02;98791.75;5042530;28;20898;-52
2024/01/05 11:34:34;;;;;;;0.30;0.20;;;;;;;11.46;84.41;98797.31;5054198;28;20454;-51
2024/01/05 11:37:05;;;;;;;0.30;0.20;;;;;;;11.15;83.87;98807.94;5054447;28;20861;-51